Time;durP1;ratioP1;P1;durP2;ratioP2;P2;SDS_P1;SDS_P2;PMS_P1;PMS_P2;Temp;Humidity;BMP_temperature;BMP_pressure;BME280_temperature;BME280_humidity;BME280_pressure;Samples;Min_cycle;Max_cycle;Signal;HPM_P1;HPM_P2
2021/11/27 00:00:24;;;;;;;6.18;1.40;;;5.40;83.50;;;;;;5001980;28;20022;-66
2021/11/27 00:02:50;;;;;;;6.38;1.58;;;5.40;83.70;;;;;;5005619;28;20046;-66
2021/11/27 00:05:18;;;;;;;6.25;1.00;;;5.40;83.60;;;;;;5009246;28;20113;-66
2021/11/27 00:07:44;;;;;;;7.38;1.08;;;5.50;83.70;;;;;;5010133;28;20079;-66
2021/11/27 00:10:13;;;;;;;3.47;0.90;;;5.40;83.50;;;;;;5009258;28;20026;-66
2021/11/27 00:12:40;;;;;;;6.55;0.90;;;5.40;83.30;;;;;;5009407;28;20041;-65
2021/11/27 00:15:07;;;;;;;5.50;1.05;;;5.40;83.10;;;;;;5009223;28;20038;-66
2021/11/27 00:17:34;;;;;;;5.03;1.20;;;5.30;83.30;;;;;;5009507;28;20049;-65
2021/11/27 00:20:00;;;;;;;5.43;1.20;;;5.30;83.50;;;;;;5009124;28;20105;-66
2021/11/27 00:22:26;;;;;;;4.90;1.05;;;5.20;83.40;;;;;;5010853;28;20112;-65
2021/11/27 00:24:52;;;;;;;7.55;1.98;;;5.10;83.20;;;;;;5009042;28;20025;-65
2021/11/27 00:27:18;;;;;;;5.47;1.10;;;5.10;83.40;;;;;;5006167;28;20038;-65
2021/11/27 00:29:44;;;;;;;7.78;1.20;;;5.00;83.70;;;;;;5009135;28;20022;-65
2021/11/27 00:32:09;;;;;;;5.40;1.00;;;5.00;83.80;;;;;;5012665;28;20075;-66
2021/11/27 00:34:35;;;;;;;9.98;1.23;;;5.00;83.80;;;;;;5013915;28;20101;-66
2021/11/27 00:37:01;;;;;;;6.85;1.08;;;5.00;83.80;;;;;;5001752;28;20053;-65
2021/11/27 00:39:27;;;;;;;6.30;1.23;;;5.00;83.90;;;;;;5007806;28;20029;-66
2021/11/27 00:41:53;;;;;;;6.07;1.30;;;5.00;84.00;;;;;;5012229;28;20054;-66
2021/11/27 00:44:22;;;;;;;12.18;1.60;;;4.90;84.30;;;;;;5012606;28;20025;-65
2021/11/27 00:46:49;;;;;;;8.70;1.60;;;4.90;84.60;;;;;;5012141;28;20405;-65
2021/11/27 00:49:15;;;;;;;12.48;1.55;;;4.80;84.70;;;;;;5013476;28;20026;-65
2021/11/27 00:51:41;;;;;;;13.93;1.67;;;4.80;84.90;;;;;;5011947;28;20241;-65
2021/11/27 00:54:07;;;;;;;11.30;1.67;;;4.80;85.30;;;;;;5016627;28;20102;-65
2021/11/27 00:56:32;;;;;;;9.10;1.45;;;4.80;85.80;;;;;;5005386;28;20169;-66
2021/11/27 00:58:58;;;;;;;12.85;1.70;;;4.90;86.10;;;;;;5012299;28;20088;-66
2021/11/27 01:01:27;;;;;;;8.38;1.30;;;4.90;86.10;;;;;;5013222;28;20026;-65
2021/11/27 01:03:54;;;;;;;7.95;1.67;;;5.00;86.10;;;;;;5013401;28;20029;-65
2021/11/27 01:06:22;;;;;;;11.68;1.50;;;5.00;86.00;;;;;;5011818;28;20072;-66
2021/11/27 01:08:50;;;;;;;8.90;1.73;;;5.10;86.10;;;;;;5011942;28;20022;-65
2021/11/27 01:11:18;;;;;;;9.02;1.50;;;5.20;85.90;;;;;;5011622;28;20104;-65
2021/11/27 01:13:46;;;;;;;13.85;1.60;;;5.20;85.60;;;;;;4996446;28;20027;-66
2021/11/27 01:16:15;;;;;;;6.22;0.93;;;5.30;84.80;;;;;;4999530;28;20030;-65
2021/11/27 01:18:41;;;;;;;9.93;1.40;;;5.30;83.90;;;;;;5009245;28;20044;-66
2021/11/27 01:21:11;;;;;;;7.38;1.25;;;5.30;83.70;;;;;;5011398;28;20026;-66
2021/11/27 01:23:38;;;;;;;7.47;1.52;;;5.30;83.90;;;;;;5012037;28;20033;-65
2021/11/27 01:26:04;;;;;;;7.10;1.25;;;5.20;84.00;;;;;;5011967;28;20037;-65
2021/11/27 01:28:30;;;;;;;8.27;1.20;;;5.20;84.30;;;;;;5012760;28;20106;-65
2021/11/27 01:30:58;;;;;;;6.22;1.20;;;5.20;84.60;;;;;;5011584;28;20022;-66
2021/11/27 01:33:27;;;;;;;7.10;1.23;;;5.10;84.60;;;;;;5011625;28;20485;-65
2021/11/27 01:35:53;;;;;;;6.50;1.15;;;5.10;84.70;;;;;;5011451;28;20048;-65
2021/11/27 01:38:19;;;;;;;11.32;1.42;;;5.00;85.50;;;;;;5011483;28;20022;-65
2021/11/27 01:40:46;;;;;;;6.35;1.20;;;4.90;84.40;;;;;;4998930;28;20026;-66
2021/11/27 01:43:12;;;;;;;11.82;1.60;;;4.70;84.50;;;;;;5020505;28;20171;-65
2021/11/27 01:45:39;;;;;;;7.43;1.20;;;4.60;84.70;;;;;;5014894;28;20029;-66
2021/11/27 01:48:08;;;;;;;8.00;1.30;;;4.40;84.80;;;;;;5011279;28;20083;-66
2021/11/27 01:50:42;;;;;;;9.43;1.42;;;4.30;85.10;;;;;;5010989;28;20065;-66
2021/11/27 01:53:08;;;;;;;8.95;1.30;;;4.20;85.30;;;;;;4995841;28;20557;-66
2021/11/27 01:55:35;;;;;;;8.30;1.13;;;4.10;85.40;;;;;;5012088;28;20076;-66
2021/11/27 01:58:01;;;;;;;6.47;1.00;;;4.00;85.70;;;;;;5010835;28;20065;-66
2021/11/27 02:00:31;;;;;;;8.80;1.40;;;3.90;85.90;;;;;;4997006;28;20029;-65
2021/11/27 02:02:57;;;;;;;7.88;1.00;;;3.90;86.20;;;;;;4999878;28;20022;-65
2021/11/27 02:05:24;;;;;;;9.30;1.30;;;3.80;86.50;;;;;;4997112;28;20440;-65
2021/11/27 02:07:51;;;;;;;7.45;1.05;;;3.80;86.60;;;;;;5011412;28;20022;-66
2021/11/27 02:10:17;;;;;;;6.80;1.30;;;3.70;86.80;;;;;;4994521;28;20030;-65
2021/11/27 02:12:43;;;;;;;9.32;1.50;;;3.70;86.90;;;;;;5010443;28;20124;-66
2021/11/27 02:15:10;;;;;;;6.85;1.15;;;3.60;86.90;;;;;;5010608;28;20041;-66
2021/11/27 02:17:36;;;;;;;10.38;1.52;;;3.60;87.10;;;;;;5010931;28;20025;-66
2021/11/27 02:20:04;;;;;;;8.82;1.50;;;3.60;87.30;;;;;;5010865;28;20030;-65
2021/11/27 02:22:33;;;;;;;10.52;1.50;;;3.60;87.30;;;;;;5011901;28;20076;-66
2021/11/27 02:25:00;;;;;;;8.18;1.58;;;3.50;87.30;;;;;;5010577;28;20049;-65
2021/11/27 02:27:26;;;;;;;7.10;1.40;;;3.60;87.40;;;;;;5010634;28;20492;-66
2021/11/27 02:29:52;;;;;;;6.05;1.30;;;3.50;87.40;;;;;;5010511;28;20056;-66
2021/11/27 02:32:18;;;;;;;9.02;1.35;;;3.50;87.50;;;;;;5010521;28;20030;-65
2021/11/27 02:34:44;;;;;;;7.00;1.23;;;3.60;87.90;;;;;;5005668;28;20021;-66
2021/11/27 02:37:10;;;;;;;6.28;1.10;;;3.60;88.30;;;;;;5011244;28;20038;-66
2021/11/27 02:39:36;;;;;;;8.57;1.30;;;3.70;88.20;;;;;;5010493;28;20022;-65
2021/11/27 02:42:05;;;;;;;9.70;1.00;;;3.80;87.80;;;;;;5009732;28;20038;-65
2021/11/27 02:44:32;;;;;;;6.75;1.27;;;3.90;87.50;;;;;;5010467;28;20034;-65
2021/11/27 02:46:59;;;;;;;6.18;1.10;;;4.00;87.10;;;;;;5010154;28;20076;-66
2021/11/27 02:49:26;;;;;;;6.78;1.00;;;4.10;86.90;;;;;;5011444;28;20088;-65
2021/11/27 02:51:52;;;;;;;5.35;1.00;;;4.00;86.50;;;;;;5010319;28;20034;-65
2021/11/27 02:54:19;;;;;;;7.68;1.00;;;4.00;86.30;;;;;;5009428;28;20420;-65
2021/11/27 02:56:46;;;;;;;7.00;1.00;;;4.00;86.50;;;;;;5009749;28;20060;-65
2021/11/27 02:59:22;;;;;;;7.20;1.10;;;4.00;86.80;;;;;;5010660;28;20032;-65
2021/11/27 03:01:52;;;;;;;8.77;1.25;;;4.00;86.80;;;;;;5012686;28;20018;-66
2021/11/27 03:04:18;;;;;;;5.45;1.20;;;4.10;86.90;;;;;;5011058;28;20018;-66
2021/11/27 03:06:45;;;;;;;8.80;1.20;;;4.10;87.10;;;;;;5012007;28;20045;-66
2021/11/27 03:09:16;;;;;;;7.60;1.23;;;4.20;87.00;;;;;;5009143;28;20022;-65
2021/11/27 03:11:53;;;;;;;11.13;1.50;;;4.20;86.70;;;;;;5009670;28;20041;-65
2021/11/27 03:14:20;;;;;;;6.88;1.45;;;4.10;86.40;;;;;;4995815;28;20420;-65
2021/11/27 03:16:47;;;;;;;6.03;1.40;;;4.00;86.40;;;;;;5010322;28;20121;-65
2021/11/27 03:19:13;;;;;;;9.90;1.20;;;3.90;86.70;;;;;;5010899;28;20022;-65
2021/11/27 03:21:39;;;;;;;7.03;1.20;;;3.80;86.90;;;;;;5009874;28;20041;-66
2021/11/27 03:24:05;;;;;;;6.20;1.30;;;3.70;88.00;;;;;;5009614;28;20026;-66
2021/11/27 03:26:31;;;;;;;9.27;1.40;;;3.70;87.30;;;;;;5009857;28;20512;-66
2021/11/27 03:28:57;;;;;;;6.93;1.33;;;3.60;87.60;;;;;;5009694;28;20105;-65
2021/11/27 03:31:23;;;;;;;10.20;1.75;;;3.50;87.70;;;;;;5011451;28;20101;-66
2021/11/27 03:33:49;;;;;;;8.57;1.20;;;3.40;87.90;;;;;;5009274;28;20119;-66
2021/11/27 03:36:17;;;;;;;11.27;1.60;;;3.40;88.30;;;;;;5011234;28;20034;-65
2021/11/27 03:38:42;;;;;;;11.40;1.35;;;3.40;88.70;;;;;;5020683;28;20020;-66
2021/11/27 03:41:10;;;;;;;8.38;1.13;;;3.40;89.10;;;;;;5006494;28;20108;-65
2021/11/27 03:43:37;;;;;;;6.43;1.30;;;3.50;89.50;;;;;;5006836;28;20046;-66
2021/11/27 03:46:03;;;;;;;10.82;1.27;;;3.60;89.60;;;;;;5009481;28;20022;-66
2021/11/27 03:48:33;;;;;;;10.05;1.40;;;3.70;89.50;;;;;;5009572;28;20026;-65
2021/11/27 03:51:00;;;;;;;6.75;1.10;;;3.80;89.50;;;;;;5009673;28;20034;-65
2021/11/27 03:53:30;;;;;;;12.85;1.48;;;3.90;89.40;;;;;;5009548;28;20105;-66
2021/11/27 03:55:56;;;;;;;15.75;1.50;;;4.00;89.20;;;;;;5009333;28;20038;-66
2021/11/27 03:58:22;;;;;;;10.48;1.23;;;4.10;89.00;;;;;;5011066;28;20022;-65
2021/11/27 04:00:50;;;;;;;13.48;1.60;;;4.10;88.80;;;;;;5009434;28;20080;-66
2021/11/27 04:03:17;;;;;;;11.15;1.33;;;4.20;88.70;;;;;;5009416;28;20022;-65
2021/11/27 04:05:48;;;;;;;14.27;1.30;;;4.20;88.50;;;;;;5011882;28;20025;-66
2021/11/27 04:08:15;;;;;;;13.75;1.60;;;4.30;88.30;;;;;;5012964;28;20025;-66
2021/11/27 04:10:40;;;;;;;10.52;1.70;;;4.40;88.30;;;;;;5013914;28;20034;-66
2021/11/27 04:13:06;;;;;;;11.48;1.48;;;4.40;88.20;;;;;;5013654;28;20025;-66
2021/11/27 04:15:32;;;;;;;10.77;1.50;;;4.50;88.10;;;;;;5012815;28;20085;-65
2021/11/27 04:17:58;;;;;;;9.70;1.63;;;4.50;87.80;;;;;;5013252;28;20503;-65
2021/11/27 04:20:24;;;;;;;9.38;1.60;;;4.60;87.60;;;;;;5013128;28;20037;-66
2021/11/27 04:22:50;;;;;;;10.23;1.30;;;4.50;87.20;;;;;;5013065;28;20037;-66
2021/11/27 04:25:16;;;;;;;14.35;1.48;;;4.50;87.00;;;;;;5013829;28;20477;-66
2021/11/27 04:27:42;;;;;;;10.18;1.50;;;4.50;87.10;;;;;;5012927;28;20041;-66
2021/11/27 04:30:11;;;;;;;10.65;1.30;;;4.50;87.40;;;;;;4994954;28;20032;-66
2021/11/27 04:32:37;;;;;;;12.80;1.60;;;4.50;87.30;;;;;;5012887;28;20029;-66
2021/11/27 04:35:04;;;;;;;10.63;1.88;;;4.40;87.30;;;;;;5009531;28;20041;-66
2021/11/27 04:37:30;;;;;;;13.77;1.35;;;4.40;87.10;;;;;;5013500;28;20030;-65
2021/11/27 04:39:56;;;;;;;12.02;1.45;;;4.30;87.10;;;;;;5012539;28;20044;-66
2021/11/27 04:42:22;;;;;;;13.57;2.33;;;4.30;87.40;;;;;;5012867;28;20156;-66
2021/11/27 04:44:48;;;;;;;8.13;1.40;;;4.20;87.80;;;;;;5012347;28;20026;-66
2021/11/27 04:47:14;;;;;;;8.40;1.33;;;4.30;88.20;;;;;;5012462;28;20073;-65
2021/11/27 04:49:39;;;;;;;9.90;1.38;;;4.40;88.40;;;;;;5013415;28;20484;-66
2021/11/27 04:52:06;;;;;;;12.60;1.30;;;4.40;88.50;;;;;;5012361;28;20037;-66
2021/11/27 04:54:35;;;;;;;10.30;1.73;;;4.50;88.30;;;;;;5012575;28;20080;-66
2021/11/27 04:57:09;;;;;;;12.38;1.67;;;4.60;88.30;;;;;;5017524;28;20400;-65
2021/11/27 04:59:41;;;;;;;15.40;1.85;;;4.60;88.20;;;;;;5012252;28;20030;-66
2021/11/27 05:02:11;;;;;;;8.77;1.40;;;4.60;88.30;;;;;;5012312;28;20080;-66
2021/11/27 05:04:41;;;;;;;10.43;1.60;;;4.60;88.50;;;;;;5011768;28;20076;-65
2021/11/27 05:07:12;;;;;;;12.68;1.50;;;4.70;88.60;;;;;;5009880;28;20026;-66
2021/11/27 05:09:42;;;;;;;11.50;1.40;;;4.70;89.50;;;;;;5012123;28;20057;-66
2021/11/27 05:12:11;;;;;;;8.73;1.15;;;4.80;88.50;;;;;;5012273;28;20101;-66
2021/11/27 05:14:40;;;;;;;12.15;1.40;;;4.80;88.60;;;;;;5011791;28;20512;-65
2021/11/27 05:17:10;;;;;;;11.90;1.40;;;4.80;89.60;;;;;;5011211;28;20029;-66
2021/11/27 05:19:40;;;;;;;8.80;1.92;;;4.80;88.60;;;;;;5008996;28;20498;-65
2021/11/27 05:22:12;;;;;;;11.82;1.50;;;4.90;88.60;;;;;;5011817;28;20030;-66
2021/11/27 05:24:43;;;;;;;11.52;1.85;;;4.80;88.40;;;;;;5011666;28;20084;-66
2021/11/27 05:27:11;;;;;;;10.27;1.75;;;4.90;88.40;;;;;;5011798;28;20057;-66
2021/11/27 05:29:38;;;;;;;10.40;1.33;;;4.90;88.40;;;;;;5014334;28;20025;-65
2021/11/27 05:32:05;;;;;;;8.93;1.20;;;5.00;88.50;;;;;;5008714;28;20034;-66
2021/11/27 05:34:33;;;;;;;10.02;1.55;;;5.00;88.60;;;;;;5012657;28;20028;-66
2021/11/27 05:37:03;;;;;;;9.88;1.30;;;5.00;88.50;;;;;;5010833;28;20441;-66
2021/11/27 05:39:29;;;;;;;7.80;0.87;;;5.00;88.70;;;;;;5011405;28;20527;-66
2021/11/27 05:41:55;;;;;;;8.70;1.35;;;5.00;88.70;;;;;;5011294;28;20044;-65
2021/11/27 05:44:21;;;;;;;10.15;1.30;;;5.00;88.90;;;;;;5011214;28;20029;-65
2021/11/27 05:46:47;;;;;;;11.50;1.60;;;5.00;89.00;;;;;;5011762;28;20029;-66
2021/11/27 05:49:13;;;;;;;6.65;1.02;;;5.00;89.10;;;;;;5000046;28;20129;-66
2021/11/27 05:51:39;;;;;;;6.35;0.90;;;5.00;89.10;;;;;;5007381;28;20422;-65
2021/11/27 05:54:05;;;;;;;8.02;1.15;;;5.00;89.20;;;;;;5011014;28;20061;-66
2021/11/27 05:56:30;;;;;;;13.10;1.65;;;5.00;89.40;;;;;;5011139;28;20054;-66
2021/11/27 05:58:56;;;;;;;6.55;1.02;;;5.00;89.60;;;;;;5010933;28;20080;-66
2021/11/27 06:01:23;;;;;;;7.00;1.00;;;5.10;89.80;;;;;;5012266;28;20470;-66
2021/11/27 06:03:49;;;;;;;7.40;1.02;;;5.10;89.80;;;;;;5011206;28;20030;-66
2021/11/27 06:06:15;;;;;;;5.45;0.90;;;5.10;89.60;;;;;;5001093;28;20493;-65
2021/11/27 06:08:40;;;;;;;7.32;0.98;;;5.10;89.70;;;;;;5004516;28;20032;-66
2021/11/27 06:11:06;;;;;;;6.43;1.08;;;5.10;89.80;;;;;;5010661;28;20038;-66
2021/11/27 06:13:32;;;;;;;6.97;1.15;;;5.10;89.70;;;;;;5015029;28;20038;-66
2021/11/27 06:15:58;;;;;;;8.15;1.23;;;5.10;89.70;;;;;;5010678;28;20041;-66
2021/11/27 06:18:24;;;;;;;7.50;0.85;;;5.10;90.00;;;;;;5010573;28;20054;-66
2021/11/27 06:20:49;;;;;;;6.28;0.90;;;5.10;90.00;;;;;;5010632;28;20109;-65
2021/11/27 06:23:15;;;;;;;7.10;0.88;;;5.10;90.10;;;;;;5010793;28;20256;-65
2021/11/27 06:25:41;;;;;;;9.90;1.00;;;5.10;90.00;;;;;;5003076;28;20392;-65
2021/11/27 06:28:08;;;;;;;7.03;0.90;;;5.10;90.10;;;;;;5005051;28;20028;-65
2021/11/27 06:30:35;;;;;;;6.05;0.90;;;5.10;90.10;;;;;;5004564;28;20029;-65
2021/11/27 06:33:02;;;;;;;7.05;1.02;;;5.10;90.00;;;;;;5005611;28;20062;-65
2021/11/27 06:35:27;;;;;;;5.82;0.98;;;5.10;90.10;;;;;;5006995;28;20034;-65
2021/11/27 06:37:53;;;;;;;5.28;0.90;;;5.10;90.10;;;;;;4993585;28;20030;-65
2021/11/27 06:40:19;;;;;;;9.88;1.88;;;5.10;90.10;;;;;;4995979;28;20026;-65
2021/11/27 06:42:45;;;;;;;10.00;0.93;;;5.10;90.20;;;;;;5000270;28;20054;-65
2021/11/27 06:45:11;;;;;;;10.55;1.10;;;5.10;90.20;;;;;;5001478;28;20112;-65
2021/11/27 06:47:36;;;;;;;9.60;1.58;;;5.10;90.20;;;;;;5003505;28;20507;-65
2021/11/27 06:50:11;;;;;;;8.30;1.17;;;5.10;90.30;;;;;;5011855;28;20458;-65
2021/11/27 06:52:37;;;;;;;11.32;1.30;;;5.20;90.30;;;;;;5021585;28;20036;-65
2021/11/27 06:55:03;;;;;;;7.10;1.08;;;5.20;90.40;;;;;;5012903;28;20025;-65
2021/11/27 06:57:31;;;;;;;7.07;1.42;;;5.20;90.50;;;;;;5017399;28;20045;-65
2021/11/27 06:59:56;;;;;;;10.02;1.05;;;5.30;90.40;;;;;;5012881;28;20388;-65
2021/11/27 07:02:26;;;;;;;13.20;1.38;;;5.40;90.40;;;;;;5012851;28;20034;-65
2021/11/27 07:04:52;;;;;;;8.02;1.33;;;5.40;90.60;;;;;;5010301;28;20021;-65
2021/11/27 07:07:18;;;;;;;6.75;1.42;;;5.40;90.60;;;;;;4997828;28;20030;-65
2021/11/27 07:09:44;;;;;;;14.07;1.30;;;5.50;90.50;;;;;;5013780;28;20025;-65
2021/11/27 07:12:10;;;;;;;15.13;1.70;;;5.50;90.60;;;;;;5013817;28;20117;-65
2021/11/27 07:14:36;;;;;;;16.33;1.40;;;5.50;90.50;;;;;;4996096;28;20105;-65
2021/11/27 07:17:02;;;;;;;13.90;1.48;;;5.50;90.50;;;;;;5004108;28;20132;-65
2021/11/27 07:19:27;;;;;;;11.90;1.55;;;5.60;90.50;;;;;;5000672;28;20021;-66
2021/11/27 07:21:53;;;;;;;16.48;1.95;;;5.60;90.50;;;;;;5002807;28;20030;-66
2021/11/27 07:24:19;;;;;;;11.85;1.58;;;5.60;90.50;;;;;;5006865;28;20023;-66
2021/11/27 07:26:45;;;;;;;10.57;1.40;;;5.60;90.40;;;;;;4978007;28;20460;-66
2021/11/27 07:29:11;;;;;;;10.27;1.40;;;5.50;90.30;;;;;;5001962;28;20029;-66
2021/11/27 07:31:37;;;;;;;14.20;1.48;;;5.50;90.10;;;;;;4995246;28;20030;-66
2021/11/27 07:34:03;;;;;;;19.05;1.90;;;5.50;89.80;;;;;;5002894;28;20022;-66
2021/11/27 07:36:29;;;;;;;11.48;1.23;;;5.50;89.80;;;;;;4998077;28;20121;-66
2021/11/27 07:38:55;;;;;;;18.48;1.60;;;5.50;89.70;;;;;;5006052;28;20038;-67
2021/11/27 07:41:21;;;;;;;10.48;1.60;;;5.50;90.00;;;;;;5003207;28;20036;-67
2021/11/27 07:43:47;;;;;;;9.23;1.48;;;5.50;90.00;;;;;;5006523;28;20046;-67
2021/11/27 07:46:13;;;;;;;11.13;2.03;;;5.60;90.00;;;;;;5005301;28;20038;-67
2021/11/27 07:48:40;;;;;;;13.20;1.55;;;5.60;90.00;;;;;;5005297;28;20100;-67
2021/11/27 07:51:06;;;;;;;8.88;1.20;;;5.70;89.90;;;;;;5006903;28;20023;-67
2021/11/27 07:53:32;;;;;;;10.35;1.50;;;5.70;89.30;;;;;;5008237;28;20036;-67
2021/11/27 07:55:58;;;;;;;12.90;1.20;;;5.70;88.70;;;;;;5004353;28;20038;-67
2021/11/27 07:58:24;;;;;;;10.70;1.10;;;5.80;88.40;;;;;;5012497;28;20033;-67
2021/11/27 08:00:50;;;;;;;19.27;5.05;;;5.70;89.30;;;;;;5013333;28;20030;-67
2021/11/27 08:03:16;;;;;;;23.60;6.57;;;5.80;88.60;;;;;;5013143;28;20030;-67
2021/11/27 08:05:42;;;;;;;10.65;1.17;;;5.80;88.90;;;;;;5009586;28;20022;-66
2021/11/27 08:08:07;;;;;;;9.75;1.48;;;5.80;89.00;;;;;;5000330;28;20034;-67
2021/11/27 08:10:33;;;;;;;10.75;1.30;;;5.80;88.50;;;;;;5011008;28;20040;-66
2021/11/27 08:12:59;;;;;;;12.93;1.50;;;5.80;88.10;;;;;;5004130;28;20026;-66
2021/11/27 08:15:25;;;;;;;11.43;1.52;;;5.90;88.30;;;;;;5009330;28;20084;-66
2021/11/27 08:17:51;;;;;;;12.35;1.80;;;5.80;88.60;;;;;;5003768;28;20103;-66
2021/11/27 08:20:17;;;;;;;10.15;1.30;;;6.00;88.80;;;;;;5010568;28;20600;-66
2021/11/27 08:22:43;;;;;;;10.45;1.60;;;6.10;88.40;;;;;;5011468;28;20060;-66
2021/11/27 08:25:10;;;;;;;12.52;1.67;;;6.10;88.50;;;;;;5009666;28;20389;-66
2021/11/27 08:27:36;;;;;;;8.77;1.20;;;6.20;88.40;;;;;;5008703;28;20029;-66
2021/11/27 08:30:05;;;;;;;15.93;1.70;;;6.30;88.10;;;;;;5008666;28;20022;-66
2021/11/27 08:32:31;;;;;;;11.40;1.60;;;6.30;87.70;;;;;;5007200;28;20030;-66
2021/11/27 08:34:57;;;;;;;14.10;2.42;;;6.20;87.00;;;;;;5011604;28;20037;-66
2021/11/27 08:37:24;;;;;;;9.35;1.50;;;6.20;87.50;;;;;;5008843;28;20042;-66
2021/11/27 08:39:50;;;;;;;9.63;1.25;;;6.20;87.90;;;;;;5011281;28;20034;-67
2021/11/27 08:42:21;;;;;;;10.68;1.85;;;6.10;88.80;;;;;;5006971;28;20517;-66
2021/11/27 08:44:48;;;;;;;12.40;1.60;;;6.10;88.00;;;;;;4991552;28;20033;-66
2021/11/27 08:47:14;;;;;;;8.43;1.30;;;6.10;88.00;;;;;;5007932;28;20026;-67
2021/11/27 08:49:40;;;;;;;10.75;2.33;;;6.10;88.00;;;;;;5006335;28;20125;-67
2021/11/27 08:52:06;;;;;;;14.88;1.50;;;6.20;87.80;;;;;;4991836;28;20026;-67
2021/11/27 08:54:32;;;;;;;11.52;1.38;;;6.20;87.70;;;;;;4994068;28;20066;-67
2021/11/27 08:56:58;;;;;;;10.30;1.58;;;6.20;87.50;;;;;;4995765;28;20406;-66
2021/11/27 08:59:23;;;;;;;7.97;1.20;;;6.20;87.90;;;;;;5005006;28;20751;-67
2021/11/27 09:01:51;;;;;;;13.90;1.50;;;6.20;87.50;;;;;;5003165;28;20115;-67
2021/11/27 09:04:16;;;;;;;10.85;1.75;;;6.30;87.50;;;;;;5004507;28;20022;-66
2021/11/27 09:06:42;;;;;;;10.38;1.35;;;6.30;87.30;;;;;;5004556;28;20092;-67
2021/11/27 09:09:08;;;;;;;8.80;1.10;;;6.30;86.60;;;;;;5000471;28;20097;-67
2021/11/27 09:11:35;;;;;;;11.07;1.45;;;6.30;86.40;;;;;;4996932;28;20026;-67
2021/11/27 09:14:02;;;;;;;9.52;1.70;;;6.30;86.40;;;;;;4999261;28;20026;-66
2021/11/27 09:16:28;;;;;;;15.77;1.67;;;6.40;86.60;;;;;;5012467;28;20050;-67
2021/11/27 09:18:54;;;;;;;13.13;1.77;;;6.50;86.20;;;;;;5005172;28;20018;-67
2021/11/27 09:21:19;;;;;;;15.65;1.67;;;6.60;85.20;;;;;;4997902;28;20108;-68
2021/11/27 09:23:46;;;;;;;13.57;1.75;;;6.60;85.00;;;;;;5002706;28;20523;-67
2021/11/27 09:26:11;;;;;;;12.30;1.55;;;6.50;85.50;;;;;;4994842;28;20102;-68
2021/11/27 09:28:37;;;;;;;14.18;2.03;;;6.50;86.40;;;;;;4993867;28;20030;-68
2021/11/27 09:31:03;;;;;;;8.98;1.30;;;6.50;86.90;;;;;;5001596;28;21291;-68
2021/11/27 09:33:29;;;;;;;6.43;1.20;;;6.50;85.50;;;;;;4999828;28;20026;-67
2021/11/27 09:36:02;;;;;;;9.35;1.30;;;6.40;85.00;;;;;;4999215;28;20047;-68
2021/11/27 09:38:29;;;;;;;12.23;1.83;;;6.30;85.20;;;;;;5000477;28;20489;-68
2021/11/27 09:41:18;;;;;;;12.38;1.33;;;6.30;85.50;;;;;;5010675;28;20080;-67
2021/11/27 09:43:47;;;;;;;9.40;1.20;;;6.30;86.10;;;;;;5000223;28;20469;-68
2021/11/27 09:46:15;;;;;;;9.90;1.40;;;6.20;85.90;;;;;;4996748;28;20528;-68
2021/11/27 09:48:46;;;;;;;13.73;2.40;;;6.20;86.00;;;;;;4997625;28;20109;-68
2021/11/27 09:51:12;;;;;;;17.67;2.65;;;6.30;85.50;;;;;;4997020;28;20049;-67
2021/11/27 09:53:39;;;;;;;11.95;2.67;;;6.50;85.00;;;;;;5006456;28;20036;-68
2021/11/27 09:56:06;;;;;;;12.52;1.83;;;6.70;84.20;;;;;;4998957;28;20858;-68
2021/11/27 09:58:32;;;;;;;10.60;1.55;;;6.80;83.70;;;;;;4998538;28;20030;-68
2021/11/27 10:00:58;;;;;;;11.00;1.38;;;7.10;83.20;;;;;;4999022;28;20202;-68
2021/11/27 10:03:26;;;;;;;10.40;2.88;;;7.40;82.30;;;;;;4996999;28;20026;-68
2021/11/27 10:05:52;;;;;;;15.93;7.65;;;7.30;81.90;;;;;;4998101;28;20101;-67
2021/11/27 10:08:18;;;;;;;14.98;5.60;;;7.20;82.50;;;;;;4994937;28;20039;-67
2021/11/27 10:10:45;;;;;;;11.25;4.22;;;7.10;82.50;;;;;;4993233;28;21592;-66
2021/11/27 10:13:11;;;;;;;9.10;2.65;;;7.00;83.20;;;;;;4999867;28;20026;-67
2021/11/27 10:15:36;;;;;;;7.75;3.95;;;6.90;84.20;;;;;;4997264;28;20490;-66
2021/11/27 10:18:23;;;;;;;10.98;5.88;;;6.80;83.80;;;;;;4999034;28;20121;-66
2021/11/27 10:21:17;;;;;;;10.90;3.60;;;6.70;83.80;;;;;;5004001;28;20056;-67
2021/11/27 10:23:45;;;;;;;10.35;4.28;;;6.60;84.60;;;;;;4991102;28;20049;-67
2021/11/27 10:26:37;;;;;;;11.23;3.65;;;6.40;85.00;;;;;;5003608;28;20029;-68
2021/11/27 10:29:19;;;;;;;11.48;3.30;;;6.30;85.50;;;;;;4994293;28;20102;-67
2021/11/27 10:31:47;;;;;;;14.43;4.15;;;6.30;86.10;;;;;;4995286;28;20030;-66
2021/11/27 10:34:18;;;;;;;14.05;5.22;;;6.30;86.30;;;;;;5000556;28;20022;-67
2021/11/27 10:36:45;;;;;;;14.90;5.22;;;6.40;86.00;;;;;;4997810;28;20059;-67
2021/11/27 10:39:11;;;;;;;8.90;2.95;;;6.40;85.80;;;;;;5003560;28;20022;-66
2021/11/27 10:41:59;;;;;;;10.15;3.88;;;6.30;86.40;;;;;;4996982;28;20034;-66
2021/11/27 10:44:28;;;;;;;14.50;5.65;;;6.40;86.20;;;;;;4993784;28;20053;-67
2021/11/27 10:47:14;;;;;;;8.75;3.55;;;6.60;85.50;;;;;;4995101;28;20149;-66
2021/11/27 10:49:41;;;;;;;14.25;5.20;;;6.80;84.50;;;;;;5000161;28;20448;-66
2021/11/27 10:52:09;;;;;;;15.57;5.70;;;6.70;83.90;;;;;;4996721;28;20404;-66
2021/11/27 10:55:01;;;;;;;18.33;7.82;;;6.70;83.70;;;;;;4994918;28;20029;-66
2021/11/27 10:57:38;;;;;;;41.25;29.10;;;6.70;83.80;;;;;;4998258;28;20516;-66
2021/11/27 11:00:10;;;;;;;30.10;20.90;;;6.80;84.10;;;;;;4998007;28;20038;-66
2021/11/27 11:02:39;;;;;;;27.45;18.00;;;7.30;83.90;;;;;;4996305;28;20560;-66
2021/11/27 11:05:16;;;;;;;14.38;7.47;;;7.40;82.70;;;;;;4999618;28;20028;-66
2021/11/27 11:07:51;;;;;;;28.50;16.38;;;7.30;82.10;;;;;;5005983;28;20076;-65
2021/11/27 11:10:22;;;;;;;23.33;12.88;;;7.50;82.40;;;;;;4995921;28;20045;-66
2021/11/27 11:12:50;;;;;;;21.77;10.13;;;8.30;80.80;;;;;;4995048;28;20022;-67
2021/11/27 11:15:17;;;;;;;20.30;8.57;;;8.90;78.80;;;;;;5003547;28;20034;-66
2021/11/27 11:17:45;;;;;;;27.13;11.45;;;10.00;76.60;;;;;;5012611;28;20038;-66
2021/11/27 11:20:18;;;;;;;19.23;8.35;;;9.60;74.40;;;;;;5010265;28;20030;-67
2021/11/27 11:23:05;;;;;;;20.30;8.32;;;9.00;74.80;;;;;;5006163;28;20030;-66
2021/11/27 11:25:34;;;;;;;11.02;3.10;;;8.50;76.80;;;;;;4999876;28;20042;-67
2021/11/27 11:28:12;;;;;;;15.40;5.05;;;8.10;77.80;;;;;;5005970;28;20089;-66
2021/11/27 11:30:39;;;;;;;16.92;6.97;;;7.90;79.30;;;;;;5006352;28;20060;-67
2021/11/27 11:33:06;;;;;;;14.05;4.35;;;7.80;80.30;;;;;;5010015;28;20096;-66
2021/11/27 11:35:34;;;;;;;13.50;4.03;;;7.60;80.30;;;;;;5005117;28;20061;-66
2021/11/27 11:38:02;;;;;;;12.55;5.40;;;7.40;81.10;;;;;;4976340;28;20031;-66
2021/11/27 11:40:29;;;;;;;14.30;5.63;;;7.30;81.00;;;;;;5003213;28;20034;-66
2021/11/27 11:42:54;;;;;;;9.38;2.03;;;7.20;81.40;;;;;;4998764;28;20034;-67
2021/11/27 11:45:20;;;;;;;9.70;2.10;;;7.20;81.30;;;;;;5002799;28;20030;-66
2021/11/27 11:47:47;;;;;;;7.78;2.63;;;7.10;80.90;;;;;;4998785;28;20033;-66
2021/11/27 11:50:18;;;;;;;12.43;3.45;;;6.90;81.20;;;;;;4994765;28;20022;-66
2021/11/27 11:53:07;;;;;;;8.30;4.15;;;6.90;82.10;;;;;;4994081;28;20026;-67
2021/11/27 11:55:36;;;;;;;18.42;7.10;;;6.80;82.00;;;;;;5000129;28;20037;-66
2021/11/27 11:58:02;;;;;;;19.27;9.15;;;6.90;82.60;;;;;;5009166;28;20559;-66
2021/11/27 12:00:35;;;;;;;14.48;8.57;;;6.90;82.10;;;;;;5004000;28;20540;-67
2021/11/27 12:03:10;;;;;;;9.52;4.45;;;6.80;82.30;;;;;;5002489;28;20102;-67
2021/11/27 12:05:54;;;;;;;10.63;4.72;;;7.00;82.00;;;;;;4995720;28;20057;-66
2021/11/27 12:08:48;;;;;;;10.15;3.28;;;7.20;81.80;;;;;;4996093;28;20428;-67
2021/11/27 12:11:39;;;;;;;14.23;6.07;;;7.20;81.00;;;;;;5005381;28;20088;-67
2021/11/27 12:14:37;;;;;;;12.88;4.57;;;7.20;81.30;;;;;;4994346;28;20042;-67
2021/11/27 12:17:19;;;;;;;12.65;4.57;;;7.20;81.70;;;;;;4918447;29;20052;-67
2021/11/27 12:19:52;;;;;;;17.15;8.32;;;7.30;81.40;;;;;;4909031;29;20055;-67
2021/11/27 12:22:20;;;;;;;10.60;3.70;;;7.70;81.00;;;;;;4927346;29;20099;-67
2021/11/27 12:25:07;;;;;;;17.45;8.32;;;7.70;79.90;;;;;;4926203;29;20035;-66
2021/11/27 12:27:52;;;;;;;16.30;5.18;;;7.50;80.20;;;;;;4926531;29;20055;-67
2021/11/27 12:30:18;;;;;;;15.88;6.95;;;7.40;80.30;;;;;;4917873;29;20032;-66
2021/11/27 12:32:44;;;;;;;15.30;5.88;;;7.20;81.00;;;;;;4922216;29;20440;-67
2021/11/27 12:35:28;;;;;;;17.40;5.20;;;7.10;81.70;;;;;;4925374;29;20121;-67
2021/11/27 12:38:15;;;;;;;12.98;4.65;;;7.10;82.20;;;;;;4927852;29;20148;-67
2021/11/27 12:40:45;;;;;;;15.45;4.85;;;7.20;83.20;;;;;;4923149;29;20132;-67
2021/11/27 12:43:18;;;;;;;11.15;5.47;;;7.20;81.70;;;;;;4920754;29;20058;-66
2021/11/27 12:45:48;;;;;;;16.00;5.30;;;7.20;81.80;;;;;;4917906;29;20427;-66
2021/11/27 12:48:31;;;;;;;17.27;5.22;;;7.20;82.40;;;;;;4917636;29;20047;-67
2021/11/27 12:51:24;;;;;;;15.55;5.03;;;7.40;82.50;;;;;;4933050;29;20036;-66
2021/11/27 12:53:59;;;;;;;16.38;5.20;;;7.70;82.00;;;;;;5000082;28;20097;-66
2021/11/27 12:56:26;;;;;;;13.63;4.80;;;7.50;81.80;;;;;;5004817;28;20038;-67